createdAt,value
2018-11-21T00:02:12.398Z,16.87
2018-11-21T00:04:40.596Z,16.62
2018-11-21T00:07:08.885Z,17.40
2018-11-21T00:09:37.194Z,16.67
2018-11-21T00:12:05.642Z,17.45
2018-11-21T00:14:33.953Z,17.20
2018-11-21T00:17:02.308Z,16.50
2018-11-21T00:19:30.649Z,17.80
2018-11-21T00:21:59.325Z,17.12
2018-11-21T00:24:27.941Z,15.13
2018-11-21T00:26:56.118Z,15.28
2018-11-21T00:29:24.353Z,14.33
2018-11-21T00:31:52.614Z,14.33
2018-11-21T00:34:20.848Z,14.68
2018-11-21T00:36:49.763Z,14.43
2018-11-21T00:39:17.985Z,14.33
2018-11-21T00:41:46.349Z,14.70
2018-11-21T00:44:14.775Z,14.25
2018-11-21T00:46:43.042Z,14.95
2018-11-21T00:49:11.286Z,13.83
2018-11-21T00:51:39.491Z,14.73
2018-11-21T00:54:08.055Z,15.18
2018-11-21T00:56:36.295Z,16.55
2018-11-21T00:59:24.006Z,15.10
2018-11-21T01:02:11.687Z,14.05
2018-11-21T01:04:59.369Z,15.03
2018-11-21T01:07:47.062Z,14.60
2018-11-21T01:10:34.777Z,15.25
2018-11-21T01:13:22.679Z,16.40
2018-11-21T01:16:10.362Z,14.83
2018-11-21T01:18:58.006Z,14.80
2018-11-21T01:21:45.671Z,15.48
2018-11-21T01:24:33.325Z,15.40
2018-11-21T01:27:20.974Z,15.93
2018-11-21T01:30:08.833Z,16.15
2018-11-21T01:32:56.868Z,15.58
2018-11-21T01:35:44.498Z,15.58
2018-11-21T01:38:25.384Z,16.25
2018-11-21T01:41:06.354Z,15.32
2018-11-21T01:43:46.784Z,15.85
2018-11-21T01:46:27.364Z,15.58
2018-11-21T01:49:08.591Z,15.13
2018-11-21T01:51:48.789Z,14.53
2018-11-21T01:54:29.332Z,15.25
2018-11-21T01:57:09.826Z,14.73
2018-11-21T01:59:50.274Z,16.00
2018-11-21T02:02:30.434Z,15.53
2018-11-21T02:05:11.257Z,14.33
2018-11-21T02:07:52.305Z,17.42
2018-11-21T02:10:32.523Z,17.98
2018-11-21T02:13:12.785Z,16.20
2018-11-21T02:15:53.761Z,15.55
2018-11-21T02:18:34.725Z,14.73
2018-11-21T02:21:15.709Z,16.02
2018-11-21T02:23:44.086Z,16.25
2018-11-21T02:26:31.717Z,15.45
2018-11-21T02:32:35.820Z,17.50
2018-11-21T02:35:23.535Z,15.65
2018-11-21T02:38:11.297Z,16.45
2018-11-21T02:40:58.952Z,16.35
2018-11-21T02:43:46.574Z,16.65
2018-11-21T02:46:34.520Z,16.70
2018-11-21T02:49:22.171Z,17.95
2018-11-21T02:52:10.632Z,16.95
2018-11-21T02:54:58.293Z,17.40
2018-11-21T02:57:45.945Z,16.40
2018-11-21T03:00:33.608Z,16.15
2018-11-21T03:03:21.582Z,13.95
2018-11-21T03:06:09.245Z,12.18
2018-11-21T03:08:56.908Z,16.70
2018-11-21T03:11:44.552Z,15.78
2018-11-21T03:14:32.299Z,17.48
2018-11-21T03:17:20.331Z,15.83
2018-11-21T03:20:08.035Z,16.07
2018-11-21T03:22:55.733Z,17.50
2018-11-21T03:25:43.617Z,15.85
2018-11-21T03:28:31.280Z,15.65
2018-11-21T03:30:59.568Z,16.55
2018-11-21T03:33:47.162Z,15.85
2018-11-21T03:36:34.839Z,16.12
2018-11-21T03:39:23.877Z,15.32
2018-11-21T03:42:11.532Z,19.65
2018-11-21T03:44:59.226Z,17.65
2018-11-21T03:47:46.960Z,19.67
2018-11-21T03:50:34.594Z,18.37
2018-11-21T03:53:22.259Z,17.65
2018-11-21T03:56:09.918Z,17.60
2018-11-21T03:58:57.569Z,16.42
2018-11-21T04:01:45.220Z,16.25
2018-11-21T04:04:32.848Z,15.05
2018-11-21T04:07:20.542Z,15.08
2018-11-21T04:10:09.009Z,17.70
2018-11-21T04:12:56.691Z,16.30
2018-11-21T04:15:44.353Z,17.80
2018-11-21T04:18:32.250Z,18.20
2018-11-21T04:21:19.881Z,16.62
2018-11-21T04:24:07.552Z,16.70
2018-11-21T04:26:55.187Z,15.55
2018-11-21T04:29:23.456Z,14.50
2018-11-21T04:32:11.404Z,16.05
2018-11-21T04:34:59.030Z,15.50
2018-11-21T04:37:46.731Z,16.77
2018-11-21T04:40:34.404Z,16.15
2018-11-21T04:43:22.091Z,17.17
2018-11-21T04:46:09.757Z,16.27
2018-11-21T04:48:57.471Z,15.58
2018-11-21T04:51:45.257Z,17.20
2018-11-21T04:54:33.344Z,16.35
2018-11-21T04:57:21.309Z,17.48
2018-11-21T05:00:09.377Z,17.90
2018-11-21T05:02:57.071Z,15.55
2018-11-21T05:05:44.803Z,17.10
2018-11-21T05:08:32.551Z,16.35
2018-11-21T05:11:20.220Z,19.35
2018-11-21T05:14:07.960Z,20.92
2018-11-21T05:16:55.939Z,21.68
2018-11-21T05:19:43.693Z,18.73
2018-11-21T05:22:31.448Z,18.20
2018-11-21T05:25:19.121Z,19.10
2018-11-21T05:28:09.237Z,20.48
2018-11-21T05:30:56.900Z,18.70
2018-11-21T05:33:44.832Z,18.98
2018-11-21T05:36:32.499Z,18.52
2018-11-21T05:39:20.183Z,17.17
2018-11-21T05:42:07.889Z,18.40
2018-11-21T05:44:55.811Z,19.20
2018-11-21T05:47:43.442Z,17.65
2018-11-21T05:50:31.426Z,19.98
2018-11-21T05:53:19.069Z,19.05
2018-11-21T05:56:06.749Z,19.80
2018-11-21T05:58:54.483Z,22.10
2018-11-21T06:01:42.121Z,21.40
2018-11-21T06:04:29.781Z,17.42
2018-11-21T06:07:17.434Z,19.50
2018-11-21T06:10:07.043Z,16.70
2018-11-21T06:12:54.748Z,15.93
2018-11-21T06:15:42.397Z,15.08
2018-11-21T06:18:30.089Z,16.95
2018-11-21T06:21:17.783Z,15.55
2018-11-21T06:24:05.478Z,16.17
2018-11-21T06:27:12.523Z,16.62
2018-11-21T06:30:00.208Z,16.35
2018-11-21T06:32:47.987Z,18.17
2018-11-21T06:35:35.650Z,17.60
2018-11-21T06:38:23.318Z,19.30
2018-11-21T06:41:10.942Z,18.17
2018-11-21T06:43:58.861Z,17.12
2018-11-21T06:46:46.513Z,18.45
2018-11-21T06:49:34.287Z,18.15
2018-11-21T06:52:02.630Z,18.32
2018-11-21T06:54:50.333Z,19.40
2018-11-21T06:57:38.011Z,18.60
2018-11-21T07:00:14.816Z,19.40
2018-11-21T07:02:42.232Z,21.77
2018-11-21T07:05:14.110Z,20.02
2018-11-21T07:07:48.457Z,20.20
2018-11-21T07:10:22.915Z,19.45
2018-11-21T07:12:52.414Z,18.30
2018-11-21T07:15:23.824Z,16.42
2018-11-21T07:17:52.398Z,16.57
2018-11-21T07:20:28.482Z,16.12
2018-11-21T07:26:02.393Z,18.35
2018-11-21T07:28:37.560Z,21.30
2018-11-21T07:31:12.164Z,18.40
2018-11-21T07:33:46.323Z,17.52
2018-11-21T07:36:17.595Z,17.90
2018-11-21T07:38:53.076Z,17.35
2018-11-21T07:41:20.638Z,18.48
2018-11-21T07:43:49.978Z,18.50
2018-11-21T07:46:20.248Z,19.30
2018-11-21T07:48:52.063Z,16.65
2018-11-21T07:51:22.710Z,18.42
2018-11-21T07:57:44.759Z,18.70
2018-11-21T08:01:01.769Z,17.70
2018-11-21T08:03:37.856Z,17.75
2018-11-21T08:06:37.250Z,17.30
2018-11-21T08:09:30.172Z,17.42
2018-11-21T08:12:29.200Z,15.83
2018-11-21T08:15:19.652Z,16.50
2018-11-21T08:18:05.101Z,16.17
2018-11-21T08:20:58.298Z,14.95
2018-11-21T08:23:44.114Z,14.73
2018-11-21T08:26:49.504Z,14.60
2018-11-21T08:29:17.702Z,16.00
2018-11-21T08:31:45.891Z,15.08
2018-11-21T08:34:16.396Z,14.15
2018-11-21T08:36:44.564Z,13.95
2018-11-21T08:39:12.734Z,15.35
2018-11-21T08:41:40.933Z,14.90
2018-11-21T08:44:09.105Z,20.55
2018-11-21T08:46:37.271Z,14.80
2018-11-21T08:49:05.483Z,15.48
2018-11-21T08:51:33.679Z,16.40
2018-11-21T08:54:01.908Z,15.45
2018-11-21T08:56:30.111Z,13.62
2018-11-21T08:58:58.281Z,17.92
2018-11-21T09:01:26.442Z,19.32
2018-11-21T09:03:54.978Z,16.27
2018-11-21T09:06:30.583Z,14.10
2018-11-21T09:08:59.244Z,13.73
2018-11-21T09:11:27.411Z,13.97
2018-11-21T09:13:55.602Z,15.77
2018-11-21T09:16:23.943Z,15.60
2018-11-21T09:18:52.125Z,17.57
2018-11-21T09:21:20.330Z,16.43
2018-11-21T09:23:48.584Z,16.33
2018-11-21T09:26:16.833Z,17.30
2018-11-21T09:28:45.012Z,16.02
2018-11-21T09:31:13.222Z,18.95
2018-11-21T09:33:41.399Z,17.02
2018-11-21T09:36:09.609Z,16.40
2018-11-21T09:38:37.836Z,16.55
2018-11-21T09:41:06.121Z,15.70
2018-11-21T09:43:34.311Z,16.42
2018-11-21T09:46:02.449Z,16.85
2018-11-21T09:48:30.622Z,14.78
2018-11-21T09:50:58.854Z,16.35
2018-11-21T09:53:26.988Z,16.95
2018-11-21T09:55:55.168Z,16.85
2018-11-21T09:58:23.343Z,18.15
2018-11-21T10:01:27.981Z,16.42
2018-11-21T10:03:58.836Z,17.00
2018-11-21T10:06:26.966Z,17.10
2018-11-21T10:08:59.753Z,17.50
2018-11-21T10:11:28.440Z,17.48
2018-11-21T10:13:56.620Z,16.32
2018-11-21T10:16:24.789Z,15.28
2018-11-21T10:18:54.458Z,15.75
2018-11-21T10:21:24.182Z,18.60
2018-11-21T10:23:52.357Z,16.97
2018-11-21T10:26:20.543Z,16.30
2018-11-21T10:28:49.511Z,16.20
2018-11-21T10:31:17.713Z,18.48
2018-11-21T10:33:46.540Z,19.05
2018-11-21T10:36:14.706Z,16.23
2018-11-21T10:38:42.972Z,16.95
2018-11-21T10:41:11.178Z,16.25
2018-11-21T10:43:39.753Z,17.15
2018-11-21T10:46:08.080Z,18.85
2018-11-21T10:48:36.270Z,16.55
2018-11-21T10:51:05.010Z,16.73
2018-11-21T10:53:33.174Z,16.75
2018-11-21T10:56:01.407Z,17.87
2018-11-21T10:58:29.563Z,18.15
2018-11-21T11:01:15.950Z,16.87
2018-11-21T11:03:50.035Z,18.87
2018-11-21T11:06:36.596Z,16.77
2018-11-21T11:09:36.870Z,17.87
2018-11-21T11:12:20.532Z,18.52
2018-11-21T11:15:06.539Z,18.10
2018-11-21T11:17:52.933Z,16.45
2018-11-21T11:20:39.172Z,18.52
2018-11-21T11:23:25.382Z,16.93
2018-11-21T11:26:11.442Z,16.40
2018-11-21T11:28:51.642Z,15.38
2018-11-21T11:31:43.594Z,16.67
2018-11-21T11:34:33.458Z,16.30
2018-11-21T11:37:23.575Z,17.48
2018-11-21T11:40:20.015Z,15.45
2018-11-21T11:43:09.981Z,24.77
2018-11-21T11:45:58.525Z,18.73
2018-11-21T11:48:51.456Z,17.90
2018-11-21T11:51:37.504Z,15.72
2018-11-21T11:54:27.446Z,15.80
2018-11-21T11:57:14.933Z,14.25
2018-11-21T11:59:53.367Z,15.38
2018-11-21T12:02:37.917Z,16.93
2018-11-21T12:05:19.585Z,14.18
2018-11-21T12:08:09.769Z,17.50
2018-11-21T12:10:55.568Z,16.07
2018-11-21T12:13:41.396Z,15.68
2018-11-21T12:16:31.331Z,14.70
2018-11-21T12:19:17.309Z,15.08
2018-11-21T12:22:10.043Z,15.65
2018-11-21T12:25:03.201Z,13.83
2018-11-21T12:27:53.610Z,16.37
2018-11-21T12:30:39.425Z,17.05
2018-11-21T12:33:25.062Z,17.52
2018-11-21T12:36:04.581Z,15.13
2018-11-21T12:38:44.428Z,14.38
2018-11-21T12:41:49.788Z,16.82
2018-11-21T12:44:36.263Z,18.35
2018-11-21T12:47:22.049Z,17.65
2018-11-21T12:50:08.074Z,17.52
2018-11-21T12:52:53.941Z,16.12
2018-11-21T12:55:41.306Z,14.87
2018-11-21T12:58:28.684Z,17.50
2018-11-21T13:01:35.522Z,17.57
2018-11-21T13:04:42.359Z,15.32
2018-11-21T13:07:49.181Z,14.73
2018-11-21T13:10:56.036Z,16.02
2018-11-21T13:14:02.881Z,18.17
2018-11-21T13:17:09.881Z,17.55
2018-11-21T13:20:16.878Z,17.48
2018-11-21T13:23:23.825Z,17.32
2018-11-21T13:26:30.634Z,16.95
2018-11-21T13:29:37.434Z,16.30
2018-11-21T13:32:44.241Z,16.35
2018-11-21T13:35:51.037Z,17.27
2018-11-21T13:38:57.875Z,16.07
2018-11-21T13:42:04.716Z,15.55
2018-11-21T13:45:11.516Z,17.85
2018-11-21T13:48:18.347Z,16.97
2018-11-21T13:51:25.143Z,15.10
2018-11-21T13:54:31.982Z,14.65
2018-11-21T13:57:20.621Z,16.20
2018-11-21T14:00:09.514Z,14.65
2018-11-21T14:02:57.100Z,15.10
2018-11-21T14:05:44.751Z,16.23
2018-11-21T14:08:32.379Z,15.78
2018-11-21T14:11:20.057Z,14.03
2018-11-21T14:14:08.232Z,16.40
2018-11-21T14:16:56.032Z,14.55
2018-11-21T14:19:43.993Z,14.33
2018-11-21T14:22:31.615Z,14.68
2018-11-21T14:25:19.449Z,16.25
2018-11-21T14:28:07.021Z,15.95
2018-11-21T14:30:54.651Z,14.83
2018-11-21T14:33:42.281Z,15.88
2018-11-21T14:36:30.062Z,14.63
2018-11-21T14:39:17.695Z,15.30
2018-11-21T14:42:08.451Z,13.78
2018-11-21T14:44:52.916Z,13.40
2018-11-21T14:47:40.740Z,15.15
2018-11-21T14:50:29.500Z,15.60
2018-11-21T14:53:17.626Z,14.80
2018-11-21T14:56:05.577Z,15.43
2018-11-21T14:58:53.257Z,14.50
2018-11-21T15:01:40.944Z,14.73
2018-11-21T15:04:28.522Z,15.03
2018-11-21T15:07:16.200Z,15.78
2018-11-21T15:10:03.907Z,14.98
2018-11-21T15:12:51.550Z,14.43
2018-11-21T15:15:39.213Z,14.45
2018-11-21T15:18:26.821Z,15.20
2018-11-21T15:21:16.686Z,14.58
2018-11-21T15:24:02.089Z,16.05
2018-11-21T15:26:49.738Z,15.58
2018-11-21T15:29:37.315Z,15.65
2018-11-21T15:32:25.005Z,14.55
2018-11-21T15:35:12.609Z,15.45
2018-11-21T15:38:00.289Z,15.95
2018-11-21T15:40:47.863Z,16.10
2018-11-21T15:43:35.537Z,15.50
2018-11-21T15:46:23.216Z,14.90
2018-11-21T15:49:11.068Z,16.15
2018-11-21T15:52:01.558Z,14.40
2018-11-21T15:54:46.299Z,16.57
2018-11-21T15:57:33.882Z,17.67
2018-11-21T16:00:23.689Z,17.70
2018-11-21T16:03:11.627Z,16.62
2018-11-21T16:05:59.434Z,16.97
2018-11-21T16:08:47.037Z,17.40
2018-11-21T16:11:34.831Z,18.98
2018-11-21T16:14:22.432Z,19.00
2018-11-21T16:17:10.109Z,17.67
2018-11-21T16:19:57.692Z,17.55
2018-11-21T16:22:45.374Z,18.27
2018-11-21T16:25:33.313Z,18.00
2018-11-21T16:28:20.991Z,18.35
2018-11-21T16:31:08.870Z,18.48
2018-11-21T16:33:56.497Z,18.45
2018-11-21T16:36:44.212Z,19.32
2018-11-21T16:39:31.804Z,21.00
2018-11-21T16:42:19.569Z,22.05
2018-11-21T16:45:07.771Z,20.97
2018-11-21T16:47:55.378Z,19.55
2018-11-21T16:50:43.007Z,18.62
2018-11-21T16:53:35.047Z,17.67
2018-11-21T16:56:18.247Z,18.30
2018-11-21T16:59:06.009Z,17.90
2018-11-21T17:01:53.664Z,17.23
2018-11-21T17:04:22.496Z,17.35
2018-11-21T17:07:10.088Z,16.10
2018-11-21T17:09:57.710Z,18.98
2018-11-21T17:12:45.896Z,17.35
2018-11-21T17:15:34.373Z,19.60
2018-11-21T17:18:22.130Z,18.30
2018-11-21T17:21:09.784Z,16.32
2018-11-21T17:23:57.377Z,16.48
2018-11-21T17:26:45.029Z,20.12
2018-11-21T17:29:33.056Z,17.25
2018-11-21T17:32:01.466Z,16.20
2018-11-21T17:34:49.195Z,14.23
2018-11-21T17:37:37.096Z,16.50
2018-11-21T17:40:27.013Z,15.83
2018-11-21T17:43:14.600Z,15.40
2018-11-21T17:46:04.178Z,18.30
2018-11-21T17:48:49.972Z,16.25
2018-11-21T17:51:37.774Z,15.03
2018-11-21T17:54:25.397Z,14.68
2018-11-21T17:57:13.101Z,16.95
2018-11-21T18:00:00.812Z,13.78
2018-11-21T18:02:48.510Z,13.62
2018-11-21T18:05:37.775Z,13.45
2018-11-21T18:08:25.446Z,15.18
2018-11-21T18:10:53.785Z,12.93
2018-11-21T18:13:41.543Z,12.33
2018-11-21T18:16:29.169Z,13.28
2018-11-21T18:19:16.864Z,12.03
2018-11-21T18:22:04.631Z,12.70
2018-11-21T18:24:32.848Z,11.20
2018-11-21T18:27:20.516Z,14.75
2018-11-21T18:30:09.392Z,12.23
2018-11-21T18:32:57.049Z,12.93
2018-11-21T18:35:44.702Z,12.73
2018-11-21T18:38:32.332Z,11.03
2018-11-21T18:41:20.030Z,13.70
2018-11-21T18:44:07.697Z,13.58
2018-11-21T18:46:55.456Z,12.40
2018-11-21T18:49:43.125Z,13.22
2018-11-21T18:52:31.547Z,12.07
2018-11-21T18:55:20.986Z,13.58
2018-11-21T18:58:28.094Z,12.95
2018-11-21T19:00:57.093Z,14.33
2018-11-21T19:03:25.323Z,15.10
2018-11-21T19:05:53.728Z,12.58
2018-11-21T19:08:21.961Z,12.10
2018-11-21T19:10:50.906Z,11.28
2018-11-21T19:13:19.332Z,12.58
2018-11-21T19:15:48.050Z,13.55
2018-11-21T19:18:16.313Z,12.13
2018-11-21T19:20:44.571Z,12.25
2018-11-21T19:23:12.793Z,12.70
2018-11-21T19:25:41.098Z,11.03
2018-11-21T19:28:09.333Z,11.80
2018-11-21T19:30:37.670Z,10.30
2018-11-21T19:33:06.082Z,14.55
2018-11-21T19:35:34.324Z,12.50
2018-11-21T19:38:02.557Z,11.55
2018-11-21T19:40:30.795Z,10.95
2018-11-21T19:42:59.035Z,10.60
2018-11-21T19:45:27.262Z,11.78
2018-11-21T19:47:55.452Z,11.20
2018-11-21T19:50:23.698Z,10.70
2018-11-21T19:52:52.514Z,10.70
2018-11-21T19:55:28.270Z,12.40
2018-11-21T19:57:56.546Z,11.38
2018-11-21T20:00:26.342Z,10.80
2018-11-21T20:02:54.647Z,11.83
2018-11-21T20:05:23.160Z,11.75
2018-11-21T20:07:51.589Z,12.50
2018-11-21T20:10:20.449Z,14.20
2018-11-21T20:12:48.701Z,10.30
2018-11-21T20:15:21.514Z,11.48
2018-11-21T20:17:51.376Z,11.85
2018-11-21T20:20:20.386Z,11.73
2018-11-21T20:22:50.247Z,10.88
2018-11-21T20:25:19.746Z,11.90
2018-11-21T20:27:48.050Z,11.22
2018-11-21T20:30:18.502Z,11.43
2018-11-21T20:32:46.764Z,11.65
2018-11-21T20:35:15.453Z,11.50
2018-11-21T20:37:44.342Z,11.08
2018-11-21T20:40:18.160Z,10.80
2018-11-21T20:42:47.229Z,11.68
2018-11-21T20:45:16.911Z,11.12
2018-11-21T20:47:45.512Z,10.60
2018-11-21T20:50:13.841Z,10.35
2018-11-21T20:52:42.934Z,11.35
2018-11-21T20:55:12.168Z,10.43
2018-11-21T20:57:41.018Z,11.10
2018-11-21T21:00:14.510Z,10.25
2018-11-21T21:02:42.761Z,10.68
2018-11-21T21:05:12.410Z,10.65
2018-11-21T21:07:41.288Z,10.53
2018-11-21T21:10:11.452Z,11.50
2018-11-21T21:12:39.672Z,11.75
2018-11-21T21:15:09.189Z,11.35
2018-11-21T21:17:37.633Z,11.83
2018-11-21T21:20:11.014Z,12.60
2018-11-21T21:22:39.340Z,11.93
2018-11-21T21:25:13.357Z,10.90
2018-11-21T21:27:41.915Z,11.30
2018-11-21T21:30:21.539Z,11.10
2018-11-21T21:32:49.838Z,11.63
2018-11-21T21:35:19.073Z,9.55
2018-11-21T21:37:47.350Z,11.90
2018-11-21T21:40:20.289Z,11.50
2018-11-21T21:42:45.309Z,10.20
2018-11-21T21:45:15.583Z,11.12
2018-11-21T21:47:43.931Z,11.83
2018-11-21T21:50:13.199Z,11.63
2018-11-21T21:52:41.414Z,11.55
2018-11-21T21:55:10.452Z,10.55
2018-11-21T21:57:38.650Z,12.45
2018-11-21T22:00:15.593Z,13.50
2018-11-21T22:02:43.925Z,13.30
2018-11-21T22:05:12.665Z,12.37
2018-11-21T22:07:41.127Z,11.70
2018-11-21T22:10:11.182Z,12.40
2018-11-21T22:12:39.589Z,12.25
2018-11-21T22:15:34.394Z,11.65
